Observations for GUERNSEY AIRPORT, United Kingdom (EGJB)

EGJB 230520Z 20013KT 9999 FEW006 BKN007 10/09 Q1019 
EGJB 230450Z 19014KT 9999 FEW006 BKN007 10/09 Q1019 
EGJB 230420Z 19013KT 9999 -DZ FEW005 BKN008 09/09 Q1019 
EGJB 230350Z 19013KT 9999 -DZ FEW005 SCT012 09/08 Q1020 
EGJB 222050Z 26009KT 9999 FEW015 BKN027 09/07 Q1022 
EGJB 222020Z 26007KT 9999 FEW015 BKN027 09/07 Q1022 
EGJB 221950Z 26008KT 9999 BKN027 09/07 Q1021
EGJB 221920Z 28009KT 9999 BKN027 10/06 Q1021
EGJB 221850Z 28011KT 9999 BKN027 10/06 Q1021
EGJB 221820Z 28014KT 9999 BKN027 10/05 Q1021
EGJB 221750Z 28014KT 9999 BKN025 10/06 Q1021
EGJB 221720Z 28014KT 9999 FEW012 BKN025 10/06 Q1020 
EGJB 221650Z 29012KT 9999 FEW012 BKN027 10/06 Q1020 
EGJB 221620Z 29013KT 9999 FEW011 SCT030 10/07 Q1020 
EGJB 221550Z 28014KT 9999 FEW011 SCT034 10/08 Q1019 
EGJB 221520Z 28013KT 9999 FEW011 10/08 Q1019
EGJB 221450Z 29014KT 9999 FEW012 BKN032 11/09 Q1018 
EGJB 221420Z 28013KT 9999 FEW012 BKN036 11/09 Q1018 
EGJB 221350Z 29012KT 9999 FEW014 11/08 Q1018
EGJB 221320Z 30014KT 9999 FEW012 BKN036 11/07 Q1017 
EGJB 221250Z 30014KT 9999 FEW012 BKN036 11/08 Q1017 
EGJB 221220Z 30015KT 9999 FEW012 SCT039 11/08 Q1017 
EGJB 221150Z 30014KT 9999 FEW014 11/08 Q1016
EGJB 221120Z 31012KT 9999 FEW010 11/08 Q1016
EGJB 221050Z 32011KT 9999 FEW009 10/08 Q1015
EGJB 221020Z 33013KT 9999 FEW006 SCT009 10/08 Q1015 
EGJB 220950Z 33014KT 9999 FEW006 BKN008 09/09 Q1014 
EGJB 220920Z 34014KT 9999 -RADZ FEW006 SCT008 BKN045 09/09 Q1012
EGJB 220850Z 35015G25KT 9999 FEW006 SCT008 BKN035 09/09 Q1011   
EGJB 220820Z 35017KT 4000 -RADZ BR SCT002 BKN003 09/09 Q1009 RERA REDZ  
EGJB 220750Z 25020KT 4000 -DZ BR SCT002 BKN003 11/11 Q1008  
EGJB 220720Z 25021KT 4000 -DZ BR SCT003 BKN004 11/11 Q1008  
EGJB 220650Z 25024KT 7000 FEW002 BKN007 11/11 Q1007 RERA REDZ   
EGJB 220620Z 25024KT 1400 R27/P1500 RADZ BR VCFG FEW000 BKN001 BKN002 11/11 Q1007   
EGJB 220550Z 24023KT 1800 1200SE R27/P1500 RADZ BR VCFG FEW000 SCT001 BKN002 11/11 Q1008
EGJB 220520Z 24024KT 0400 -DZ FG BKN000 BKN001 11/11 Q1008  
EGJB 220450Z 25024KT 1000 0600E BR BCFG SCT000 BKN001 11/11 Q1008 RERA REDZ